Time;durP1;ratioP1;P1;durP2;ratioP2;P2;SDS_P1;SDS_P2;PMS_P1;PMS_P2;Temp;Humidity;BMP_temperature;BMP_pressure;BME280_temperature;BME280_humidity;BME280_pressure;Samples;Min_cycle;Max_cycle;Signal;HPM_P1;HPM_P2
2021/10/31 00:01:13;;;;;;;25.25;21.77;;;9.50;99.90;;;;;;4959004;28;20027;-83
2021/10/31 00:03:39;;;;;;;22.52;20.40;;;9.50;99.90;;;;;;4962405;28;20456;-86
2021/10/31 00:06:05;;;;;;;22.80;20.48;;;9.50;99.90;;;;;;4962633;28;20460;-81
2021/10/31 00:08:32;;;;;;;20.15;18.30;;;9.60;99.90;;;;;;4968440;28;20031;-82
2021/10/31 00:10:58;;;;;;;21.92;19.85;;;9.60;99.90;;;;;;4952307;28;20058;-82
2021/10/31 00:13:24;;;;;;;23.23;20.67;;;9.60;99.90;;;;;;4956153;28;20050;-82
2021/10/31 00:15:51;;;;;;;22.50;20.10;;;9.60;99.90;;;;;;4978588;28;20046;-82
2021/10/31 00:18:17;;;;;;;22.85;20.50;;;9.60;99.90;;;;;;4955288;28;20511;-83
2021/10/31 00:20:43;;;;;;;21.52;18.77;;;9.60;99.90;;;;;;4953937;28;20042;-83
2021/10/31 00:23:09;;;;;;;22.75;20.55;;;9.70;99.90;;;;;;4954427;28;20035;-83
2021/10/31 00:25:36;;;;;;;21.83;19.40;;;9.70;99.90;;;;;;4952736;28;20058;-83
2021/10/31 00:28:02;;;;;;;20.63;18.55;;;9.70;99.90;;;;;;4959666;28;20046;-83
2021/10/31 00:30:29;;;;;;;20.83;18.92;;;9.70;99.90;;;;;;4954080;28;20042;-83
2021/10/31 00:32:55;;;;;;;31.70;19.17;;;9.70;99.90;;;;;;4969050;28;20045;-83
2021/10/31 00:35:22;;;;;;;20.50;18.50;;;9.70;99.90;;;;;;4952947;28;20031;-83
2021/10/31 00:37:49;;;;;;;19.95;18.17;;;9.70;99.90;;;;;;4954354;28;20062;-83
2021/10/31 00:40:15;;;;;;;18.75;16.98;;;9.70;99.90;;;;;;4958755;28;20047;-82
2021/10/31 00:42:42;;;;;;;19.98;18.27;;;9.80;99.90;;;;;;4972352;28;20038;-85
2021/10/31 00:45:09;;;;;;;20.48;18.77;;;9.90;99.90;;;;;;4953185;29;20392;-82
2021/10/31 00:47:35;;;;;;;19.63;17.92;;;10.00;99.90;;;;;;4966958;28;20062;-82
2021/10/31 00:50:01;;;;;;;21.90;19.92;;;10.00;99.90;;;;;;4974870;28;20039;-82
2021/10/31 00:52:28;;;;;;;19.98;18.15;;;10.00;99.90;;;;;;4974762;28;20046;-82
2021/10/31 00:54:55;;;;;;;22.23;19.80;;;9.90;99.90;;;;;;4981001;28;20030;-82
2021/10/31 00:57:22;;;;;;;21.17;19.33;;;10.00;99.90;;;;;;4972574;28;20034;-82
2021/10/31 00:59:48;;;;;;;22.40;20.10;;;9.90;99.90;;;;;;4958571;28;20039;-82
2021/10/31 01:02:16;;;;;;;20.48;18.45;;;9.90;99.90;;;;;;4975092;28;20031;-81
2021/10/31 01:04:55;;;;;;;20.83;18.88;;;9.90;99.90;;;;;;4958137;28;20027;-85
2021/10/31 01:07:21;;;;;;;19.75;17.80;;;9.80;99.90;;;;;;4962821;28;20054;-81
2021/10/31 01:10:20;;;;;;;19.10;17.20;;;9.80;99.90;;;;;;4975670;28;20046;-80
2021/10/31 01:12:57;;;;;;;24.83;20.33;;;9.80;99.90;;;;;;4954315;29;20492;-80
2021/10/31 01:15:23;;;;;;;20.27;18.55;;;9.70;99.90;;;;;;4959033;29;20039;-81
2021/10/31 01:18:16;;;;;;;20.63;18.83;;;9.60;99.90;;;;;;4957465;29;20047;-82
2021/10/31 01:20:55;;;;;;;19.77;17.98;;;9.60;99.90;;;;;;4958760;29;20047;-88
2021/10/31 01:23:24;;;;;;;19.27;17.35;;;9.50;99.90;;;;;;4962850;28;20053;-81
2021/10/31 01:26:15;;;;;;;21.30;19.13;;;9.40;99.90;;;;;;4984207;28;20027;-84
2021/10/31 01:28:59;;;;;;;20.33;18.30;;;9.40;99.90;;;;;;4979985;28;20016;-89
2021/10/31 01:31:36;;;;;;;22.10;20.05;;;9.40;99.90;;;;;;4967348;29;20039;-82
2021/10/31 01:34:30;;;;;;;21.45;19.48;;;9.30;99.90;;;;;;4956553;28;20043;-82
2021/10/31 01:37:01;;;;;;;21.05;19.00;;;9.30;99.90;;;;;;4956796;28;20059;-82
2021/10/31 01:39:38;;;;;;;22.65;20.52;;;9.20;99.90;;;;;;4972109;28;20507;-82
2021/10/31 01:42:21;;;;;;;22.52;20.60;;;9.20;99.90;;;;;;4969969;28;20051;-81
2021/10/31 01:45:02;;;;;;;25.00;22.40;;;9.10;99.90;;;;;;4955813;28;20508;-82
2021/10/31 01:47:31;;;;;;;22.77;20.73;;;9.20;99.90;;;;;;4971179;28;20067;-81
2021/10/31 01:50:19;;;;;;;21.45;19.50;;;9.20;99.90;;;;;;4957416;28;20388;-82
2021/10/31 01:52:54;;;;;;;23.63;21.42;;;9.10;99.90;;;;;;4956983;28;20039;-83
2021/10/31 01:55:24;;;;;;;22.05;19.90;;;9.00;99.90;;;;;;4964575;28;20035;-82
2021/10/31 01:57:57;;;;;;;23.73;21.48;;;9.10;99.90;;;;;;4973670;28;20031;-82
2021/10/31 02:00:26;;;;;;;27.13;24.67;;;9.10;99.90;;;;;;4966306;28;20057;-83
2021/10/31 02:02:52;;;;;;;26.15;23.48;;;9.10;99.90;;;;;;4969128;28;20035;-83
2021/10/31 02:05:23;;;;;;;24.92;22.80;;;9.10;99.90;;;;;;4958199;28;20034;-82
2021/10/31 02:07:50;;;;;;;;;;;9.00;99.90;;;;;;4960386;28;20039;-82
2021/10/31 02:10:18;;;;;;;22.58;20.80;;;9.10;99.90;;;;;;4975977;28;20359;-83
2021/10/31 02:12:46;;;;;;;25.38;23.27;;;9.10;99.90;;;;;;4957387;28;20433;-87
2021/10/31 02:15:15;;;;;;;24.25;22.15;;;9.10;99.90;;;;;;4963748;28;20042;-82
2021/10/31 02:17:47;;;;;;;26.25;23.73;;;9.10;99.90;;;;;;4977083;28;20035;-87
2021/10/31 02:20:14;;;;;;;25.13;22.85;;;9.00;99.90;;;;;;4943230;28;20054;-82
2021/10/31 02:22:43;;;;;;;23.73;21.75;;;8.90;99.90;;;;;;4976610;28;20042;-81
2021/10/31 02:25:10;;;;;;;26.55;23.88;;;8.90;99.90;;;;;;4969809;28;20063;-83
2021/10/31 02:27:42;;;;;;;28.77;26.15;;;8.90;99.90;;;;;;4957769;28;20364;-82
2021/10/31 02:30:09;;;;;;;28.88;25.42;;;8.90;99.90;;;;;;4965528;28;20039;-82
2021/10/31 02:32:35;;;;;;;26.60;24.25;;;8.90;99.90;;;;;;4973204;28;20158;-82
2021/10/31 02:35:02;;;;;;;26.80;24.38;;;8.80;99.90;;;;;;4974960;28;20031;-81
2021/10/31 02:37:28;;;;;;;28.95;25.98;;;8.80;99.90;;;;;;4959421;28;20039;-82
2021/10/31 02:39:55;;;;;;;27.42;25.02;;;8.90;99.90;;;;;;4961943;28;20042;-82
2021/10/31 02:42:21;;;;;;;29.80;26.63;;;8.90;99.90;;;;;;4970191;28;20043;-82
2021/10/31 02:44:48;;;;;;;28.88;26.25;;;8.90;99.90;;;;;;4965183;28;20047;-83
2021/10/31 02:47:36;;;;;;;30.70;27.60;;;8.90;99.90;;;;;;4965076;28;20031;-82
2021/10/31 02:50:04;;;;;;;28.42;25.92;;;8.90;99.90;;;;;;4966361;28;20496;-82
2021/10/31 02:52:55;;;;;;;27.83;25.38;;;8.90;99.90;;;;;;4957951;28;20042;-82
2021/10/31 02:55:29;;;;;;;30.90;28.13;;;8.80;99.90;;;;;;4956355;28;20496;-83
2021/10/31 02:58:14;;;;;;;30.80;28.02;;;8.90;99.90;;;;;;4965372;28;20043;-83
2021/10/31 03:00:41;;;;;;;32.67;29.50;;;8.90;99.90;;;;;;4971775;28;20047;-82
2021/10/31 03:03:08;;;;;;;33.83;30.98;;;9.00;99.90;;;;;;4966703;28;20039;-82
2021/10/31 03:05:35;;;;;;;34.05;30.90;;;9.00;99.90;;;;;;4970981;28;20047;-83
2021/10/31 03:08:02;;;;;;;35.83;32.70;;;9.00;99.90;;;;;;4970480;28;20050;-83
2021/10/31 03:10:28;;;;;;;33.97;30.90;;;9.10;99.90;;;;;;4955252;28;20040;-82
2021/10/31 03:12:55;;;;;;;32.35;29.55;;;9.00;99.90;;;;;;4956177;29;20058;-82
2021/10/31 03:15:23;;;;;;;33.72;30.73;;;9.00;99.90;;;;;;4966646;29;20031;-82
2021/10/31 03:17:49;;;;;;;32.20;29.55;;;9.10;99.90;;;;;;4975451;28;20050;-83
2021/10/31 03:20:16;;;;;;;31.48;28.63;;;9.10;99.90;;;;;;4975237;28;20484;-82
2021/10/31 03:22:42;;;;;;;32.65;29.80;;;9.10;99.90;;;;;;4961665;28;20500;-82
2021/10/31 03:25:09;;;;;;;35.92;32.42;;;9.10;99.90;;;;;;4969061;28;20049;-82
2021/10/31 03:27:35;;;;;;;32.95;29.95;;;9.20;99.90;;;;;;4965178;28;20027;-80
2021/10/31 03:30:02;;;;;;;31.20;28.45;;;9.10;99.90;;;;;;4955749;28;20047;-83
2021/10/31 03:32:28;;;;;;;34.22;30.60;;;9.10;99.90;;;;;;4970523;28;20043;-84
2021/10/31 03:34:55;;;;;;;33.53;30.58;;;9.20;99.90;;;;;;4955840;28;20050;-82
2021/10/31 03:37:22;;;;;;;34.05;30.63;;;9.20;99.90;;;;;;4973807;28;20034;-82
2021/10/31 03:39:48;;;;;;;36.65;33.15;;;9.20;99.90;;;;;;4973977;28;20381;-82
2021/10/31 03:42:14;;;;;;;38.20;34.42;;;9.30;99.90;;;;;;4960176;28;20042;-83
2021/10/31 03:44:48;;;;;;;36.08;32.42;;;9.30;99.90;;;;;;4960450;28;20038;-82
2021/10/31 03:47:16;;;;;;;36.20;32.85;;;9.30;99.90;;;;;;4983022;28;20039;-82
2021/10/31 03:49:42;;;;;;;34.50;31.30;;;9.30;99.90;;;;;;4978593;28;20032;-81
2021/10/31 03:52:08;;;;;;;33.35;30.05;;;9.40;99.90;;;;;;4976741;28;20023;-80
2021/10/31 03:54:34;;;;;;;33.88;30.98;;;9.40;99.90;;;;;;4969810;28;20045;-82
2021/10/31 03:57:00;;;;;;;34.65;31.10;;;9.50;99.90;;;;;;4955892;28;20044;-83
2021/10/31 03:59:27;;;;;;;33.97;30.67;;;9.40;99.90;;;;;;4970730;28;20473;-82
2021/10/31 04:01:53;;;;;;;32.90;30.10;;;9.30;99.90;;;;;;4953210;28;20043;-82
2021/10/31 04:04:19;;;;;;;33.38;30.00;;;9.40;99.90;;;;;;4954903;29;20036;-82
2021/10/31 04:06:45;;;;;;;33.33;30.15;;;9.40;99.90;;;;;;4962794;28;20448;-87
2021/10/31 04:09:11;;;;;;;33.60;30.38;;;9.40;99.90;;;;;;4957430;28;20039;-82
2021/10/31 04:11:37;;;;;;;33.90;30.83;;;9.30;99.90;;;;;;4954998;29;20063;-82
2021/10/31 04:14:04;;;;;;;31.50;28.63;;;9.30;99.90;;;;;;4954709;28;20031;-82
2021/10/31 04:16:30;;;;;;;30.60;27.58;;;9.30;99.90;;;;;;4966989;28;20027;-82
2021/10/31 04:18:56;;;;;;;31.17;28.42;;;9.40;99.90;;;;;;4954808;28;20047;-82
2021/10/31 04:21:22;;;;;;;31.65;28.90;;;9.50;99.90;;;;;;4965162;28;20031;-82
2021/10/31 04:23:49;;;;;;;32.40;29.45;;;9.40;99.90;;;;;;4983364;28;20483;-83
2021/10/31 04:26:15;;;;;;;33.67;30.25;;;9.50;99.90;;;;;;4965846;28;20031;-83
2021/10/31 04:28:41;;;;;;;32.38;29.38;;;9.50;99.90;;;;;;4964827;28;20042;-82
2021/10/31 04:31:07;;;;;;;31.48;28.48;;;9.50;99.90;;;;;;4974745;28;20529;-83
2021/10/31 04:33:34;;;;;;;27.67;25.08;;;9.40;99.90;;;;;;4958150;28;20503;-83
2021/10/31 04:36:00;;;;;;;30.80;28.00;;;9.30;99.90;;;;;;4957994;28;20369;-84
2021/10/31 04:38:30;;;;;;;28.23;25.58;;;9.20;99.90;;;;;;4972416;28;20483;-84
2021/10/31 04:40:57;;;;;;;27.73;25.17;;;9.20;99.90;;;;;;4959806;28;20055;-83
2021/10/31 04:43:25;;;;;;;29.30;26.75;;;9.10;99.90;;;;;;4957359;28;20481;-83
2021/10/31 04:45:52;;;;;;;28.25;25.52;;;9.10;99.90;;;;;;4968954;28;20035;-83
2021/10/31 04:48:21;;;;;;;29.63;26.63;;;9.00;99.90;;;;;;4958489;29;20039;-83
2021/10/31 04:50:48;;;;;;;31.50;28.23;;;9.00;99.90;;;;;;4969631;28;20049;-84
2021/10/31 04:53:14;;;;;;;32.92;29.98;;;9.00;99.90;;;;;;4960889;28;20023;-83
2021/10/31 04:55:41;;;;;;;31.10;28.25;;;9.10;99.90;;;;;;4956320;29;20400;-83
2021/10/31 04:58:09;;;;;;;29.23;26.73;;;9.10;99.90;;;;;;4967301;28;20039;-82
2021/10/31 05:00:35;;;;;;;29.33;26.70;;;9.10;99.90;;;;;;4990859;28;20019;-84
2021/10/31 05:03:02;;;;;;;29.45;26.63;;;9.10;99.90;;;;;;4984880;28;20042;-86
2021/10/31 05:05:30;;;;;;;28.17;25.55;;;9.10;99.90;;;;;;4972683;28;20043;-82
2021/10/31 05:07:56;;;;;;;28.23;25.83;;;9.00;99.90;;;;;;4958673;28;20050;-83
2021/10/31 05:10:25;;;;;;;28.92;26.13;;;9.00;99.90;;;;;;4957992;29;20027;-83
2021/10/31 05:12:52;;;;;;;31.52;28.27;;;9.00;99.90;;;;;;4956000;28;20046;-83
2021/10/31 05:15:19;;;;;;;29.80;26.98;;;9.00;99.90;;;;;;4958154;28;20031;-82
2021/10/31 05:17:46;;;;;;;29.63;26.90;;;9.00;99.90;;;;;;4963514;28;20046;-84
2021/10/31 05:20:13;;;;;;;28.52;25.63;;;9.10;99.90;;;;;;4957000;28;20039;-83
2021/10/31 05:22:40;;;;;;;27.27;24.67;;;9.10;99.90;;;;;;4971813;28;20484;-82
2021/10/31 05:25:08;;;;;;;30.95;28.15;;;9.10;99.90;;;;;;4974588;28;20034;-83
2021/10/31 05:27:35;;;;;;;29.88;26.80;;;9.10;99.90;;;;;;4976029;28;20035;-83
2021/10/31 05:30:06;;;;;;;52.10;47.17;;;9.10;99.90;;;;;;4957655;28;20038;-85
2021/10/31 05:32:33;;;;;;;;;;;9.10;99.90;;;;;;4956718;29;20031;-82
2021/10/31 05:35:00;;;;;;;36.95;33.40;;;9.10;99.90;;;;;;4971892;28;20287;-83
2021/10/31 05:37:36;;;;;;;40.95;37.30;;;9.10;99.90;;;;;;4971839;28;20062;-82
2021/10/31 05:40:04;;;;;;;48.20;43.65;;;9.10;99.90;;;;;;4957263;28;20070;-82
2021/10/31 05:42:31;;;;;;;50.10;44.40;;;9.10;99.90;;;;;;4971518;28;20412;-83
2021/10/31 05:44:57;;;;;;;35.75;32.13;;;9.10;99.90;;;;;;4955879;28;20042;-83
2021/10/31 05:47:24;;;;;;;35.53;32.50;;;9.10;99.90;;;;;;4956837;28;20492;-83
2021/10/31 05:49:51;;;;;;;30.77;28.15;;;9.10;99.90;;;;;;4971364;28;20066;-83
2021/10/31 05:52:17;;;;;;;30.65;27.42;;;9.10;99.90;;;;;;4965141;28;20031;-83
2021/10/31 05:54:44;;;;;;;29.52;26.83;;;9.10;99.90;;;;;;4976914;28;20034;-83
2021/10/31 05:57:10;;;;;;;31.33;28.45;;;9.10;99.90;;;;;;4963355;28;20031;-82
2021/10/31 05:59:36;;;;;;;33.75;30.77;;;9.10;99.90;;;;;;4971201;28;20039;-86
2021/10/31 06:02:03;;;;;;;27.88;25.52;;;9.20;99.90;;;;;;4956399;28;20032;-82
2021/10/31 06:04:31;;;;;;;33.15;30.25;;;9.30;99.90;;;;;;4974612;28;20042;-82
2021/10/31 06:06:58;;;;;;;36.15;32.70;;;9.60;99.90;;;;;;4973546;28;20051;-83
2021/10/31 06:09:24;;;;;;;48.35;43.83;;;9.90;99.90;;;;;;4955959;28;20031;-84
2021/10/31 06:11:50;;;;;;;40.75;37.03;;;10.00;99.90;;;;;;4984218;28;20047;-84
2021/10/31 06:14:17;;;;;;;38.40;34.55;;;10.10;99.90;;;;;;4970899;28;20047;-83
2021/10/31 06:16:44;;;;;;;35.47;32.33;;;10.20;99.90;;;;;;4955969;28;20051;-83
2021/10/31 06:19:10;;;;;;;35.38;32.33;;;10.30;99.90;;;;;;4954288;28;20055;-82
2021/10/31 06:21:37;;;;;;;36.60;32.90;;;10.30;99.90;;;;;;4972842;28;20384;-83
2021/10/31 06:24:03;;;;;;;32.72;29.30;;;10.30;99.90;;;;;;4974991;28;20035;-82
2021/10/31 06:26:29;;;;;;;42.88;38.78;;;10.30;99.90;;;;;;4958982;28;20046;-82
2021/10/31 06:28:56;;;;;;;45.83;41.50;;;10.20;99.90;;;;;;4938417;29;20051;-82
2021/10/31 06:31:22;;;;;;;37.63;34.33;;;10.10;99.90;;;;;;4983046;28;20062;-83
2021/10/31 06:33:48;;;;;;;33.58;29.65;;;10.10;99.90;;;;;;4975369;28;20039;-83
2021/10/31 06:36:14;;;;;;;34.67;31.70;;;10.20;99.90;;;;;;4976217;28;20027;-82
2021/10/31 06:38:40;;;;;;;32.28;29.42;;;10.30;99.90;;;;;;4964689;28;20052;-82
2021/10/31 06:41:07;;;;;;;32.78;29.90;;;10.30;99.90;;;;;;4977336;28;20043;-82
2021/10/31 06:43:35;;;;;;;31.30;27.67;;;10.30;99.90;;;;;;4960301;28;20031;-84
2021/10/31 06:46:03;;;;;;;26.38;23.92;;;10.30;99.90;;;;;;4957864;28;20040;-82
2021/10/31 06:48:29;;;;;;;28.40;26.00;;;10.40;99.90;;;;;;4974068;28;20047;-82
2021/10/31 06:50:56;;;;;;;24.65;22.65;;;10.40;99.90;;;;;;4955074;28;20038;-82
2021/10/31 06:53:22;;;;;;;23.50;21.48;;;10.40;99.90;;;;;;4969557;28;20058;-82
2021/10/31 06:55:49;;;;;;;23.08;20.98;;;10.50;99.90;;;;;;4954967;28;20477;-86
2021/10/31 06:58:15;;;;;;;19.08;17.48;;;10.60;99.90;;;;;;4954907;28;20398;-81
2021/10/31 07:00:42;;;;;;;16.20;14.70;;;10.70;99.90;;;;;;4955509;29;20031;-82
2021/10/31 07:03:09;;;;;;;20.20;14.95;;;10.90;99.90;;;;;;4973446;28;20617;-82
2021/10/31 07:05:35;;;;;;;21.70;19.60;;;11.00;99.90;;;;;;4975942;28;20035;-82
2021/10/31 07:08:01;;;;;;;13.05;12.05;;;11.10;99.90;;;;;;4963357;28;20038;-80
2021/10/31 07:10:28;;;;;;;11.55;10.23;;;11.20;99.90;;;;;;4971712;28;20042;-80
2021/10/31 07:12:54;;;;;;;10.95;9.98;;;11.20;99.90;;;;;;4971632;28;20043;-81
2021/10/31 07:15:20;;;;;;;9.98;9.00;;;11.30;99.90;;;;;;4957981;28;20039;-80
2021/10/31 07:17:46;;;;;;;14.63;13.07;;;11.40;99.90;;;;;;4960218;28;20473;-81
2021/10/31 07:20:13;;;;;;;10.68;9.73;;;11.40;99.90;;;;;;4968905;28;20047;-80
2021/10/31 07:22:41;;;;;;;10.23;9.43;;;11.60;99.90;;;;;;4957544;29;20027;-81
2021/10/31 07:25:08;;;;;;;10.57;8.20;;;11.80;99.90;;;;;;4955655;29;20054;-80
2021/10/31 07:27:35;;;;;;;13.48;12.18;;;11.80;99.90;;;;;;4968827;28;20036;-80
2021/10/31 07:30:02;;;;;;;9.48;8.50;;;12.00;99.90;;;;;;4967088;28;20031;-82
2021/10/31 07:32:29;;;;;;;7.75;6.93;;;12.20;99.90;;;;;;4976408;28;20039;-81
2021/10/31 07:34:55;;;;;;;8.98;6.68;;;12.10;99.90;;;;;;4977623;28;20030;-81
2021/10/31 07:37:21;;;;;;;6.65;6.05;;;12.30;99.90;;;;;;4986762;28;20031;-86
2021/10/31 07:39:49;;;;;;;6.82;6.13;;;12.70;99.90;;;;;;4986579;28;20035;-82
2021/10/31 07:42:16;;;;;;;6.30;5.70;;;13.20;99.90;;;;;;4979760;28;20022;-82
2021/10/31 07:44:44;;;;;;;7.65;6.90;;;13.70;99.90;;;;;;4997257;28;20037;-82
2021/10/31 07:47:10;;;;;;;5.95;5.35;;;14.10;99.90;;;;;;4975600;28;20119;-83
2021/10/31 07:49:37;;;;;;;6.15;5.55;;;14.40;99.90;;;;;;4994650;28;20038;-82
2021/10/31 07:52:03;;;;;;;4.25;3.85;;;14.80;99.90;;;;;;4975825;28;20030;-87
2021/10/31 07:54:29;;;;;;;6.75;3.13;;;15.50;98.10;;;;;;4964027;28;20043;-81
2021/10/31 07:56:59;;;;;;;3.45;2.95;;;15.90;95.50;;;;;;4954665;28;20043;-83
2021/10/31 07:59:26;;;;;;;8.70;7.93;;;16.10;93.50;;;;;;4959607;28;20046;-80
2021/10/31 08:01:53;;;;;;;3.97;3.67;;;16.00;92.70;;;;;;4964339;28;20039;-83
2021/10/31 08:04:19;;;;;;;2.60;2.38;;;15.30;93.40;;;;;;4942939;28;20072;-83
2021/10/31 08:06:45;;;;;;;5.38;3.83;;;14.90;94.90;;;;;;4968806;28;20035;-84
2021/10/31 08:09:12;;;;;;;3.42;2.70;;;14.60;96.20;;;;;;4963993;28;20038;-83
2021/10/31 08:11:42;;;;;;;4.93;3.53;;;14.60;96.70;;;;;;4965590;28;20118;-84
2021/10/31 08:14:12;;;;;;;4.38;2.70;;;14.70;97.00;;;;;;4960364;28;20479;-81
2021/10/31 08:16:38;;;;;;;3.67;3.00;;;14.70;96.00;;;;;;4957053;28;20047;-84
2021/10/31 08:19:05;;;;;;;5.00;4.20;;;14.50;97.00;;;;;;4957422;28;20043;-84
2021/10/31 08:21:32;;;;;;;3.88;2.25;;;14.50;97.90;;;;;;4956350;29;20047;-84
2021/10/31 08:23:58;;;;;;;5.43;2.58;;;14.50;97.90;;;;;;4947743;29;20148;-81
2021/10/31 08:26:25;;;;;;;3.80;3.10;;;14.40;97.60;;;;;;4957141;29;20084;-82
2021/10/31 08:28:51;;;;;;;3.03;2.17;;;14.40;98.20;;;;;;4941004;29;20054;-86
2021/10/31 08:31:25;;;;;;;3.88;2.92;;;14.30;98.70;;;;;;4956883;29;20051;-85
2021/10/31 08:33:59;;;;;;;3.65;2.20;;;14.20;99.40;;;;;;4959353;29;20039;-86
2021/10/31 08:36:28;;;;;;;2.53;2.08;;;14.30;99.70;;;;;;4955928;29;20039;-82
2021/10/31 08:38:55;;;;;;;3.28;2.97;;;14.30;99.90;;;;;;4942881;29;20051;-82
2021/10/31 08:41:25;;;;;;;4.75;2.53;;;14.60;99.20;;;;;;4959532;29;20039;-83
2021/10/31 08:43:57;;;;;;;2.88;2.25;;;14.70;98.40;;;;;;4972567;29;20031;-87
2021/10/31 08:46:24;;;;;;;2.97;1.83;;;14.70;98.10;;;;;;4970718;29;20050;-82
2021/10/31 08:48:51;;;;;;;5.13;2.55;;;14.90;98.10;;;;;;4956415;29;20055;-86
2021/10/31 08:51:19;;;;;;;8.25;7.45;;;15.00;97.20;;;;;;4953616;29;20031;-83
2021/10/31 08:53:46;;;;;;;3.50;2.17;;;15.10;97.10;;;;;;4954663;29;20163;-85
2021/10/31 08:56:13;;;;;;;3.58;2.22;;;15.10;97.00;;;;;;4969176;28;20252;-81
2021/10/31 08:58:40;;;;;;;2.33;2.13;;;15.20;96.70;;;;;;4957543;28;20047;-81
2021/10/31 09:01:07;;;;;;;2.30;1.90;;;15.30;96.70;;;;;;4971369;28;20030;-83
2021/10/31 09:03:33;;;;;;;2.95;2.40;;;15.40;96.70;;;;;;4977482;28;20050;-82
2021/10/31 09:06:00;;;;;;;2.75;1.92;;;15.50;96.20;;;;;;4989737;28;20039;-84
2021/10/31 09:08:26;;;;;;;17.13;2.65;;;15.50;96.00;;;;;;4976033;28;20469;-87
2021/10/31 09:10:53;;;;;;;3.60;1.67;;;15.60;95.80;;;;;;4957879;28;20031;-85
2021/10/31 09:13:20;;;;;;;2.47;1.30;;;15.70;95.70;;;;;;4957790;28;20035;-82
2021/10/31 09:15:46;;;;;;;2.83;1.50;;;15.80;94.90;;;;;;4974717;28;20047;-83
2021/10/31 09:18:13;;;;;;;2.35;1.58;;;15.90;94.90;;;;;;4959360;28;20515;-85
2021/10/31 09:20:39;;;;;;;2.28;1.98;;;16.00;94.40;;;;;;4956457;28;20512;-84
2021/10/31 09:23:07;;;;;;;1.90;1.38;;;16.20;93.70;;;;;;4955867;28;20055;-86
2021/10/31 09:25:34;;;;;;;1.35;1.10;;;16.20;93.20;;;;;;4966265;28;20046;-85
2021/10/31 09:28:01;;;;;;;2.05;1.50;;;16.30;93.50;;;;;;4970190;28;20040;-80
2021/10/31 09:30:30;;;;;;;1.92;1.27;;;16.40;92.10;;;;;;4958409;28;20043;-81
2021/10/31 09:32:56;;;;;;;4.05;1.02;;;16.50;92.00;;;;;;4957649;29;20050;-83
2021/10/31 09:35:25;;;;;;;3.00;1.58;;;16.60;91.80;;;;;;4961699;28;20043;-84
2021/10/31 09:38:00;;;;;;;2.15;1.13;;;16.60;91.30;;;;;;4982432;28;20362;-88
2021/10/31 09:40:27;;;;;;;1.52;1.23;;;16.80;91.40;;;;;;4968430;28;20050;-85
2021/10/31 09:42:57;;;;;;;1.67;1.42;;;16.90;90.80;;;;;;4980639;28;20045;-90
2021/10/31 09:45:24;;;;;;;1.60;1.30;;;17.10;90.60;;;;;;4971026;28;20035;-84
2021/10/31 09:47:59;;;;;;;1.73;1.00;;;17.10;89.90;;;;;;4981801;28;20039;-90
2021/10/31 09:50:28;;;;;;;1.77;1.30;;;17.30;88.50;;;;;;4977725;28;20035;-87
2021/10/31 09:52:54;;;;;;;1.45;1.35;;;17.10;89.50;;;;;;4966286;28;20054;-87
2021/10/31 09:55:21;;;;;;;1.98;1.42;;;16.90;88.30;;;;;;4963351;28;20027;-87
2021/10/31 09:57:48;;;;;;;4.95;1.98;;;16.90;89.40;;;;;;4961552;28;20495;-87
2021/10/31 10:00:19;;;;;;;1.92;1.48;;;16.90;89.10;;;;;;4943001;29;20047;-86
2021/10/31 10:05:39;;;;;;;4.20;1.30;;;16.80;89.80;;;;;;4970824;28;20052;-87
2021/10/31 10:08:17;;;;;;;2.42;1.27;;;16.70;89.30;;;;;;4978201;28;20042;-87
2021/10/31 10:10:52;;;;;;;1.25;1.00;;;16.80;89.10;;;;;;4957101;28;20042;-87
2021/10/31 10:13:22;;;;;;;1.77;1.20;;;16.80;88.10;;;;;;4977536;28;20408;-87
2021/10/31 10:15:50;;;;;;;1.40;0.82;;;16.90;88.20;;;;;;4960415;28;20450;-87
2021/10/31 10:18:30;;;;;;;2.38;1.02;;;17.00;87.70;;;;;;4958845;28;20047;-88
2021/10/31 10:21:29;;;;;;;1.13;0.80;;;16.90;88.00;;;;;;4955797;28;20039;-88
2021/10/31 10:23:57;;;;;;;3.25;1.27;;;16.90;87.40;;;;;;4955239;28;20039;-87
2021/10/31 10:26:36;;;;;;;1.35;1.05;;;17.00;89.00;;;;;;4968719;28;20066;-87
2021/10/31 10:29:08;;;;;;;1.77;1.27;;;16.80;88.30;;;;;;4958687;28;20046;-87
2021/10/31 10:31:35;;;;;;;2.25;1.10;;;16.80;89.10;;;;;;4952663;28;20058;-88
2021/10/31 10:34:01;;;;;;;1.23;1.13;;;16.70;89.00;;;;;;4954284;28;20039;-87
2021/10/31 10:36:34;;;;;;;2.40;0.82;;;16.70;88.40;;;;;;4966216;28;20039;-87
2021/10/31 10:39:09;;;;;;;1.17;0.95;;;16.70;89.40;;;;;;4964477;28;20131;-87
2021/10/31 10:41:53;;;;;;;1.77;1.42;;;16.80;88.80;;;;;;4969861;28;20046;-88
2021/10/31 10:44:38;;;;;;;1.67;1.25;;;16.60;89.30;;;;;;4960601;28;20035;-87
2021/10/31 10:47:12;;;;;;;2.55;1.50;;;16.60;90.00;;;;;;4972710;28;20042;-87
2021/10/31 10:49:43;;;;;;;9.63;1.50;;;16.80;89.70;;;;;;4975344;28;20039;-86
2021/10/31 10:52:23;;;;;;;2.03;1.70;;;16.80;88.70;;;;;;4973567;28;20126;-84
2021/10/31 10:55:09;;;;;;;1.35;1.20;;;16.80;88.70;;;;;;4970378;28;20043;-84
2021/10/31 10:57:39;;;;;;;2.85;1.75;;;16.80;88.20;;;;;;4955775;28;20476;-85
2021/10/31 11:00:15;;;;;;;1.77;1.50;;;16.70;89.30;;;;;;4956566;28;20039;-85
2021/10/31 11:02:41;;;;;;;4.28;1.50;;;16.80;88.10;;;;;;4969981;28;20039;-83
2021/10/31 11:05:11;;;;;;;2.03;1.65;;;16.80;88.60;;;;;;4970222;28;20058;-81
2021/10/31 11:07:47;;;;;;;3.97;1.52;;;16.80;89.10;;;;;;4973243;28;20232;-83
2021/10/31 11:10:20;;;;;;;2.25;1.67;;;16.70;89.30;;;;;;4971580;28;20050;-78
2021/10/31 11:12:49;;;;;;;2.13;1.65;;;16.60;88.20;;;;;;4973160;28;20131;-82
2021/10/31 11:15:25;;;;;;;2.65;1.73;;;16.60;89.20;;;;;;4963001;28;20041;-82
2021/10/31 11:17:53;;;;;;;1.83;1.50;;;16.60;89.70;;;;;;4973767;28;20341;-88
2021/10/31 11:20:25;;;;;;;2.08;1.70;;;16.60;89.60;;;;;;4957947;28;20196;-81
2021/10/31 11:22:58;;;;;;;5.15;1.75;;;16.70;89.30;;;;;;4954539;28;20102;-86
2021/10/31 11:25:26;;;;;;;3.78;1.42;;;16.70;90.10;;;;;;4966101;28;20043;-81
2021/10/31 11:27:54;;;;;;;1.73;1.35;;;16.90;88.50;;;;;;4966786;28;20042;-82
2021/10/31 11:30:22;;;;;;;2.42;1.25;;;17.10;88.60;;;;;;4955650;28;20039;-81
2021/10/31 11:32:50;;;;;;;2.08;1.38;;;17.10;87.70;;;;;;4972079;28;20034;-80
2021/10/31 11:35:18;;;;;;;1.50;1.33;;;17.10;87.50;;;;;;4968483;28;20027;-83
2021/10/31 11:37:59;;;;;;;1.60;1.48;;;17.20;87.70;;;;;;4969419;28;20373;-82
2021/10/31 11:40:30;;;;;;;1.38;1.27;;;17.40;87.30;;;;;;4972813;28;20039;-82
2021/10/31 11:42:56;;;;;;;;;;;17.60;85.80;;;;;;4956867;28;20048;-82
2021/10/31 11:45:29;;;;;;;2.75;1.05;;;17.70;85.00;;;;;;4969534;28;19921;-82
2021/10/31 11:48:15;;;;;;;1.60;1.40;;;17.80;85.10;;;;;;4960309;28;20027;-83
2021/10/31 11:51:04;;;;;;;1.80;1.42;;;17.70;85.10;;;;;;4974334;28;20026;-87
2021/10/31 11:53:48;;;;;;;1.58;1.23;;;17.70;85.10;;;;;;4968214;29;20050;-82
2021/10/31 11:56:21;;;;;;;3.75;1.73;;;17.80;84.30;;;;;;4970846;28;20039;-82
2021/10/31 11:58:52;;;;;;;2.88;1.60;;;18.00;85.10;;;;;;4968859;28;20051;-83
2021/10/31 12:01:37;;;;;;;1.70;1.25;;;18.30;83.60;;;;;;4960042;28;20039;-83
2021/10/31 12:04:13;;;;;;;1.42;0.90;;;18.20;83.40;;;;;;4973230;28;20031;-82
2021/10/31 12:06:42;;;;;;;2.30;1.25;;;18.30;83.10;;;;;;4964908;28;20035;-83
2021/10/31 12:09:26;;;;;;;1.58;1.10;;;18.30;83.10;;;;;;4937069;29;20476;-82
2021/10/31 12:11:57;;;;;;;4.80;1.45;;;18.50;82.80;;;;;;4971976;28;20050;-83
2021/10/31 12:14:51;;;;;;;4.50;1.55;;;18.50;82.30;;;;;;4959022;28;20046;-83
2021/10/31 12:17:19;;;;;;;2.78;1.50;;;18.70;81.90;;;;;;4954119;28;20043;-83
2021/10/31 12:19:47;;;;;;;2.28;1.60;;;18.80;81.20;;;;;;4957834;28;20046;-83
2021/10/31 12:22:25;;;;;;;1.90;1.27;;;18.90;81.10;;;;;;4960621;28;20047;-83
2021/10/31 12:25:02;;;;;;;3.20;1.50;;;18.90;80.20;;;;;;4955267;28;20050;-82
2021/10/31 12:27:44;;;;;;;1.63;1.20;;;18.60;80.50;;;;;;4987575;28;20042;-79
2021/10/31 12:30:15;;;;;;;1.75;1.58;;;18.50;81.00;;;;;;4985060;28;20026;-79
2021/10/31 12:32:46;;;;;;;1.77;1.38;;;18.60;81.00;;;;;;4965436;28;20039;-81
2021/10/31 12:35:32;;;;;;;1.40;1.23;;;18.60;80.80;;;;;;4966495;28;20373;-82
2021/10/31 12:38:24;;;;;;;1.20;0.70;;;18.70;81.10;;;;;;4968545;28;20031;-81
2021/10/31 12:41:11;;;;;;;2.30;1.50;;;18.80;80.10;;;;;;4973592;28;20057;-84
2021/10/31 12:43:45;;;;;;;2.30;1.60;;;18.80;81.90;;;;;;4957353;28;20047;-83
2021/10/31 12:46:20;;;;;;;7.15;1.80;;;18.80;80.30;;;;;;4964011;28;20035;-84
2021/10/31 12:48:52;;;;;;;2.28;1.48;;;18.90;80.10;;;;;;4956731;28;20054;-83
2021/10/31 12:51:33;;;;;;;1.35;1.00;;;19.10;79.30;;;;;;4957414;28;20059;-83
2021/10/31 12:54:22;;;;;;;1.75;1.42;;;19.10;78.60;;;;;;4942504;28;20047;-84
2021/10/31 12:56:49;;;;;;;1.45;0.95;;;19.10;79.40;;;;;;4956508;28;20492;-83